Time;durP1;ratioP1;P1;durP2;ratioP2;P2;SDS_P1;SDS_P2;PMS_P1;PMS_P2;Temp;Humidity;BMP_temperature;BMP_pressure;BME280_temperature;BME280_humidity;BME280_pressure;Samples;Min_cycle;Max_cycle;Signal;HPM_P1;HPM_P2
2021/05/02 10:46:41;;;;;;;31.23;30.13;;;;;;;;;;5070774;28;21034;-68
2021/05/02 10:49:06;;;;;;;30.35;29.25;;;;;;;;;;5063405;28;20180;-68
2021/05/02 10:51:34;;;;;;;32.10;30.83;;;;;;;;;;5069302;28;20519;-68
2021/05/02 10:54:07;;;;;;;28.63;27.63;;;;;;;;;;5070655;28;20664;-68
2021/05/02 10:56:43;;;;;;;33.88;32.58;;;;;;;;;;5070522;28;20744;-68
2021/05/02 10:59:09;;;;;;;32.65;31.35;;;;;;;;;;5070541;28;20574;-68
2021/05/02 11:01:35;;;;;;;34.63;33.33;;;;;;;;;;5070433;28;20169;-68
2021/05/02 11:04:01;;;;;;;33.00;31.80;;;;;;;;;;5070331;28;20168;-68
2021/05/02 11:06:40;;;;;;;30.92;29.83;;;;;;;;;;5070347;28;20652;-68
2021/05/02 11:09:06;;;;;;;31.48;29.63;;;;;;;;;;5070315;28;20172;-68
2021/05/02 11:11:39;;;;;;;29.42;28.42;;;;;;;;;;5070237;28;20191;-68
2021/05/02 11:14:20;;;;;;;31.23;30.13;;;;;;;;;;5070213;28;20168;-68
2021/05/02 11:16:48;;;;;;;33.13;31.90;;;;;;;;;;5070208;28;20161;-68
2021/05/02 11:19:34;;;;;;;32.38;31.17;;;;;;;;;;5070037;28;20230;-68
2021/05/02 11:22:10;;;;;;;33.40;32.20;;;;;;;;;;5068970;28;20191;-68
2021/05/02 11:24:39;;;;;;;32.20;31.10;;;;;;;;;;5069991;28;20184;-68
2021/05/02 11:29:50;;;;;;;32.58;31.48;;;;;;;;;;5069966;28;20172;-68
2021/05/02 11:32:33;;;;;;;32.17;31.08;;;;;;;;;;5069783;28;20171;-68
2021/05/02 11:35:00;;;;;;;34.70;33.13;;;;;;;;;;5070001;28;20237;-68
2021/05/02 11:37:38;;;;;;;31.30;30.20;;;;;;;;;;5068431;28;20173;-68
2021/05/02 11:40:19;;;;;;;31.98;30.88;;;;;;;;;;5068206;28;20183;-68
2021/05/02 11:42:58;;;;;;;31.33;30.02;;;;;;;;;;5068250;28;20179;-68
2021/05/02 11:45:29;;;;;;;29.95;28.95;;;;;;;;;;5069293;28;20228;-68
2021/05/02 11:47:56;;;;;;;30.83;29.73;;;;;;;;;;5069491;28;20614;-68
2021/05/02 11:50:22;;;;;;;28.55;27.63;;;;;;;;;;5069411;28;20160;-68
2021/05/02 11:52:52;;;;;;;30.77;29.75;;;;;;;;;;5069333;28;20168;-68
2021/05/02 11:55:30;;;;;;;29.00;27.90;;;;;;;;;;5069548;28;20251;-68
2021/05/02 11:57:57;;;;;;;30.88;29.77;;;;;;;;;;5054370;28;20263;-68
2021/05/02 12:00:39;;;;;;;30.00;29.00;;;;;;;;;;5056002;28;20180;-68
2021/05/02 12:03:09;;;;;;;31.58;29.95;;;;;;;;;;5055869;28;20203;-68
2021/05/02 12:05:50;;;;;;;31.10;30.05;;;;;;;;;;5055823;28;20543;-68
2021/05/02 12:08:17;;;;;;;30.10;29.00;;;;;;;;;;5055882;28;20169;-68
2021/05/02 12:10:44;;;;;;;34.58;33.20;;;;;;;;;;5055847;28;20173;-68
2021/05/02 12:13:28;;;;;;;33.35;32.15;;;;;;;;;;5055789;28;20175;-68
2021/05/02 12:16:05;;;;;;;33.20;31.80;;;;;;;;;;5055708;28;20169;-68
2021/05/02 12:18:44;;;;;;;30.92;29.85;;;;;;;;;;5055692;28;20169;-68
2021/05/02 12:21:30;;;;;;;29.67;28.52;;;;;;;;;;5055679;28;20177;-68
2021/05/02 12:24:10;;;;;;;29.30;28.30;;;;;;;;;;5055378;28;20177;-68
2021/05/02 12:26:56;;;;;;;29.67;28.67;;;;;;;;;;5055573;28;20165;-68
2021/05/02 12:29:25;;;;;;;29.25;28.25;;;;;;;;;;5054095;28;20726;-68
2021/05/02 12:31:54;;;;;;;28.48;27.58;;;;;;;;;;5055452;28;20200;-68
2021/05/02 12:34:26;;;;;;;30.00;28.55;;;;;;;;;;5055319;28;20181;-68
2021/05/02 12:36:55;;;;;;;31.08;29.92;;;;;;;;;;5055333;28;20169;-68
2021/05/02 12:39:21;;;;;;;32.83;31.40;;;;;;;;;;5055312;28;20172;-68
2021/05/02 12:41:53;;;;;;;32.67;31.58;;;;;;;;;;5055124;28;20264;-68
2021/05/02 12:44:20;;;;;;;33.78;32.58;;;;;;;;;;5053724;28;20236;-68
2021/05/02 12:46:48;;;;;;;33.42;32.15;;;;;;;;;;5055089;28;20192;-68
2021/05/02 12:49:33;;;;;;;34.35;33.15;;;;;;;;;;5055112;28;20165;-68
2021/05/02 12:52:02;;;;;;;33.50;32.20;;;;;;;;;;5055060;28;20256;-68
2021/05/02 12:54:29;;;;;;;34.47;33.28;;;;;;;;;;5055034;28;20173;-68
2021/05/02 12:57:04;;;;;;;33.65;32.42;;;;;;;;;;5053676;28;20173;-68
2021/05/02 12:59:53;;;;;;;29.75;28.75;;;;;;;;;;5054879;28;20204;-68
2021/05/02 13:02:21;;;;;;;32.17;30.90;;;;;;;;;;5054898;28;20180;-68
2021/05/02 13:04:48;;;;;;;33.05;31.85;;;;;;;;;;5054764;28;20549;-68
2021/05/02 13:07:15;;;;;;;36.83;35.42;;;;;;;;;;5054446;28;20643;-68
2021/05/02 13:09:45;;;;;;;41.83;40.22;;;;;;;;;;5054116;28;20203;-68
2021/05/02 13:12:14;;;;;;;38.92;37.45;;;;;;;;;;5054669;28;20200;-68
2021/05/02 13:14:41;;;;;;;36.20;34.83;;;;;;;;;;5054610;28;20177;-68
2021/05/02 13:17:16;;;;;;;34.95;33.65;;;;;;;;;;5054606;28;20641;-68
2021/05/02 13:19:44;;;;;;;34.00;32.80;;;;;;;;;;5054511;28;20168;-68
2021/05/02 13:22:27;;;;;;;36.17;34.88;;;;;;;;;;5053169;28;20180;-68
2021/05/02 13:24:53;;;;;;;36.58;35.25;;;;;;;;;;5053070;28;20705;-68
2021/05/02 13:27:37;;;;;;;33.03;31.83;;;;;;;;;;5054233;28;20240;-68
2021/05/02 13:30:04;;;;;;;34.33;33.13;;;;;;;;;;5054193;28;20180;-68
2021/05/02 13:32:30;;;;;;;31.90;30.80;;;;;;;;;;5054127;28;20196;-68
2021/05/02 13:34:56;;;;;;;31.85;30.75;;;;;;;;;;5054094;28;20165;-68
2021/05/02 13:37:22;;;;;;;35.33;34.03;;;;;;;;;;5054095;28;20173;-68
2021/05/02 13:39:48;;;;;;;31.95;30.85;;;;;;;;;;5054047;28;20191;-68
2021/05/02 13:42:14;;;;;;;33.33;32.13;;;;;;;;;;5053868;28;20185;-68
2021/05/02 13:44:41;;;;;;;35.47;34.17;;;;;;;;;;5053711;28;20742;-68
2021/05/02 13:47:07;;;;;;;38.80;37.30;;;;;;;;;;5053870;28;20172;-68
2021/05/02 13:49:33;;;;;;;34.00;32.80;;;;;;;;;;5053767;28;20171;-68
2021/05/02 13:51:59;;;;;;;31.38;30.27;;;;;;;;;;5053805;28;20169;-68
2021/05/02 13:54:25;;;;;;;31.75;30.55;;;;;;;;;;5053707;28;20172;-68
2021/05/02 13:56:51;;;;;;;32.90;31.77;;;;;;;;;;5053708;28;20590;-68
2021/05/02 14:21:46;;;;;;;29.85;28.85;;;;;;;;;;5090811;28;20590;-71
2021/05/02 14:24:12;;;;;;;32.03;30.83;;;;;;;;;;5090804;28;20195;-73
2021/05/02 14:26:38;;;;;;;35.97;34.67;;;;;;;;;;5090676;28;20576;-71
2021/05/02 14:29:04;;;;;;;39.42;37.83;;;;;;;;;;5090691;28;20167;-71
2021/05/02 14:31:31;;;;;;;35.80;34.50;;;;;;;;;;5090650;28;20625;-71
2021/05/02 14:33:57;;;;;;;38.88;37.42;;;;;;;;;;5090608;28;20160;-71
2021/05/02 14:36:23;;;;;;;29.50;28.50;;;;;;;;;;5090552;28;20520;-71
2021/05/02 14:38:49;;;;;;;31.35;30.25;;;;;;;;;;5090428;28;20167;-72
2021/05/02 14:41:16;;;;;;;28.13;27.23;;;;;;;;;;5090359;28;20199;-71
2021/05/02 14:43:42;;;;;;;35.70;34.20;;;;;;;;;;5090390;28;20183;-71
2021/05/02 14:46:08;;;;;;;41.10;39.50;;;;;;;;;;5090466;28;20171;-71
2021/05/02 14:48:34;;;;;;;34.95;33.65;;;;;;;;;;5090358;28;20591;-71
2021/05/02 14:51:00;;;;;;;33.05;31.85;;;;;;;;;;5090191;28;20174;-71
2021/05/02 14:53:26;;;;;;;30.58;29.50;;;;;;;;;;5090179;28;20536;-71
2021/05/02 14:55:52;;;;;;;28.80;27.80;;;;;;;;;;5090011;28;20174;-71
2021/05/02 14:58:18;;;;;;;37.75;36.25;;;;;;;;;;5090063;28;20168;-71
2021/05/02 15:00:44;;;;;;;41.65;40.05;;;;;;;;;;5089967;28;20687;-71
2021/05/02 15:03:10;;;;;;;36.00;34.70;;;;;;;;;;5090089;28;20557;-71
2021/05/02 15:05:37;;;;;;;33.08;31.88;;;;;;;;;;5088991;28;20263;-71
2021/05/02 15:08:06;;;;;;;31.10;29.90;;;;;;;;;;5088685;28;20160;-71
2021/05/02 15:10:32;;;;;;;30.80;29.73;;;;;;;;;;5089511;28;20168;-71
2021/05/02 15:12:58;;;;;;;32.63;31.52;;;;;;;;;;5088207;28;20198;-71
2021/05/02 15:15:24;;;;;;;37.70;36.30;;;;;;;;;;5088918;28;20168;-71
2021/05/02 15:17:51;;;;;;;33.63;32.38;;;;;;;;;;5089603;28;20258;-71
2021/05/02 15:20:17;;;;;;;31.67;30.58;;;;;;;;;;5089248;28;20225;-73
2021/05/02 15:22:43;;;;;;;32.85;31.65;;;;;;;;;;5089652;28;20156;-71
2021/05/02 15:25:10;;;;;;;32.13;30.92;;;;;;;;;;5089445;28;20733;-73
2021/05/02 15:27:37;;;;;;;31.88;30.75;;;;;;;;;;5088204;28;20175;-73
2021/05/02 15:30:07;;;;;;;31.30;30.20;;;;;;;;;;5089415;28;20168;-73
2021/05/02 15:43:13;;;;;;;30.05;29.05;;;;;;;;;;5090607;27;20515;-72
2021/05/02 15:45:39;;;;;;;32.58;31.42;;;;;;;;;;5090603;28;20189;-72
2021/05/02 15:48:05;;;;;;;30.77;29.67;;;;;;;;;;5090438;28;20569;-72
2021/05/02 15:50:31;;;;;;;34.55;33.30;;;;;;;;;;5090557;28;20195;-72
2021/05/02 15:52:57;;;;;;;37.22;35.83;;;;;;;;;;5090552;28;20206;-72
2021/05/02 15:55:24;;;;;;;31.73;30.63;;;;;;;;;;5090518;28;20164;-72
2021/05/02 15:57:50;;;;;;;31.50;30.40;;;;;;;;;;5089227;28;20563;-72
2021/05/02 16:00:16;;;;;;;32.55;31.40;;;;;;;;;;5090398;28;20178;-72
2021/05/02 16:02:42;;;;;;;34.15;32.95;;;;;;;;;;5090280;28;20665;-72
2021/05/02 16:05:09;;;;;;;34.97;33.70;;;;;;;;;;5090407;28;20163;-72
2021/05/02 16:07:35;;;;;;;42.80;40.78;;;;;;;;;;5090313;28;20210;-72
2021/05/02 16:10:02;;;;;;;45.80;44.00;;;;;;;;;;5090265;28;20290;-72
2021/05/02 16:12:28;;;;;;;38.50;37.03;;;;;;;;;;5090273;28;20168;-72
2021/05/02 16:14:54;;;;;;;32.53;31.25;;;;;;;;;;5088864;28;20176;-72
2021/05/02 16:17:20;;;;;;;29.45;28.45;;;;;;;;;;5088879;28;20256;-72
2021/05/02 16:19:46;;;;;;;28.48;27.58;;;;;;;;;;5090064;28;20171;-72
2021/05/02 16:22:13;;;;;;;30.83;29.73;;;;;;;;;;5089986;28;20558;-72
2021/05/02 16:24:39;;;;;;;41.55;39.90;;;;;;;;;;5088659;28;20196;-72
2021/05/02 16:27:05;;;;;;;35.03;33.75;;;;;;;;;;5090121;28;20172;-72
2021/05/02 16:29:32;;;;;;;29.75;28.65;;;;;;;;;;5089837;28;20197;-72
2021/05/02 16:31:59;;;;;;;27.95;27.05;;;;;;;;;;5089852;28;20172;-72
2021/05/02 16:34:25;;;;;;;30.85;29.75;;;;;;;;;;5089849;28;20739;-72
2021/05/02 16:36:51;;;;;;;32.88;31.73;;;;;;;;;;5089757;28;20202;-72
2021/05/02 16:39:18;;;;;;;36.75;35.35;;;;;;;;;;5089874;28;20163;-71
2021/05/02 16:41:44;;;;;;;37.42;35.38;;;;;;;;;;5089586;28;20246;-72
2021/05/02 16:44:11;;;;;;;30.63;29.60;;;;;;;;;;5089690;28;20167;-72
2021/05/02 16:46:37;;;;;;;31.23;30.13;;;;;;;;;;5089773;28;20515;-72
2021/05/02 16:49:03;;;;;;;32.65;31.40;;;;;;;;;;5089706;28;20164;-72
2021/05/02 16:51:29;;;;;;;37.10;35.70;;;;;;;;;;5089670;28;20179;-72
2021/05/02 16:53:56;;;;;;;37.08;35.58;;;;;;;;;;5079805;28;20173;-72
2021/05/02 16:56:22;;;;;;;34.58;33.30;;;;;;;;;;5076035;28;20633;-72
2021/05/02 16:58:48;;;;;;;32.42;31.33;;;;;;;;;;5075931;28;20282;-72
2021/05/02 17:01:14;;;;;;;34.58;33.38;;;;;;;;;;5075862;28;20282;-71
2021/05/02 17:03:40;;;;;;;36.60;35.20;;;;;;;;;;5076032;28;20171;-72
2021/05/02 17:06:07;;;;;;;40.70;39.08;;;;;;;;;;5076102;28;20678;-72
2021/05/02 17:08:34;;;;;;;32.15;30.83;;;;;;;;;;5076109;28;20182;-73
2021/05/02 17:11:00;;;;;;;30.02;28.98;;;;;;;;;;5075789;28;20172;-73
2021/05/02 17:13:26;;;;;;;36.97;35.58;;;;;;;;;;5075893;28;20199;-73
2021/05/02 17:15:52;;;;;;;38.75;37.15;;;;;;;;;;5075904;28;20282;-73
2021/05/02 17:18:18;;;;;;;35.47;34.17;;;;;;;;;;5074617;28;20190;-73
2021/05/02 17:20:45;;;;;;;30.15;29.15;;;;;;;;;;5075701;28;20161;-73
2021/05/02 17:23:11;;;;;;;33.63;32.42;;;;;;;;;;5075618;28;20192;-73
2021/05/02 17:25:37;;;;;;;31.77;30.67;;;;;;;;;;5075670;28;20164;-74
2021/05/02 17:28:03;;;;;;;31.25;30.15;;;;;;;;;;5075563;28;20164;-74
2021/05/02 17:30:29;;;;;;;32.60;31.33;;;;;;;;;;5075478;28;20173;-73
2021/05/02 17:32:55;;;;;;;37.78;36.08;;;;;;;;;;5075397;28;20173;-73
2021/05/02 17:35:21;;;;;;;36.70;35.35;;;;;;;;;;5075342;28;20252;-73
2021/05/02 17:37:47;;;;;;;36.65;35.33;;;;;;;;;;5075386;28;20641;-73
2021/05/02 17:40:14;;;;;;;44.38;42.65;;;;;;;;;;5075399;28;20173;-73
2021/05/02 17:42:40;;;;;;;50.60;48.53;;;;;;;;;;5074992;28;20224;-73
2021/05/02 17:45:07;;;;;;;47.90;46.00;;;;;;;;;;5075204;28;20561;-73
2021/05/02 17:47:33;;;;;;;43.58;41.83;;;;;;;;;;5075244;28;20198;-73
2021/05/02 17:50:00;;;;;;;48.03;46.13;;;;;;;;;;5075121;28;20247;-72
